Time;durP1;ratioP1;P1;durP2;ratioP2;P2;SDS_P1;SDS_P2;PMS_P1;PMS_P2;Temp;Humidity;BMP_temperature;BMP_pressure;BME280_temperature;BME280_humidity;BME280_pressure;Samples;Min_cycle;Max_cycle;Signal;HPM_P1;HPM_P2
2023/04/03 03:03:14;;;;;;;5.38;2.03;;;;;;;11.10;72.07;100954.69;12992275;22;97088;-79
2023/04/03 03:08:37;;;;;;;4.38;2.33;;;;;;;11.09;72.29;100947.72;12996105;22;98849;-79
2023/04/03 03:13:41;;;;;;;4.95;2.30;;;;;;;11.00;72.30;100938.28;12996121;22;99035;-79
2023/04/03 03:18:46;;;;;;;3.38;2.33;;;;;;;10.84;73.50;100941.41;12995838;22;99154;-79
2023/04/03 03:23:59;;;;;;;;;;;;;;;;;;;;;
2023/04/03 03:30:35;;;;;;;;;;;;;;;;;;;;;
2023/04/03 17:24:43;;;;;;;6.63;3.58;;;;;;;19.24;50.54;100142.66;12963189;22;97798;-80
2023/04/03 17:29:58;;;;;;;8.48;3.92;;;;;;;19.29;51.53;100135.13;12996493;22;96897;-79
2023/04/03 17:35:01;;;;;;;8.45;4.40;;;;;;;19.17;51.88;100126.28;12996588;22;97081;-79
2023/04/03 17:40:13;;;;;;;7.60;4.13;;;;;;;19.19;51.33;100116.34;12994171;22;96693;-79
2023/04/03 17:45:21;;;;;;;9.13;4.07;;;;;;;19.15;52.08;100104.19;12995180;22;96495;-79
2023/04/03 17:50:30;;;;;;;9.63;4.00;;;;;;;19.05;51.66;100099.69;12993724;22;96793;-79
2023/04/03 17:55:37;;;;;;;7.53;3.92;;;;;;;18.97;51.80;100083.44;12993616;22;96932;-79
2023/04/03 18:00:46;;;;;;;7.43;3.83;;;;;;;18.91;52.56;100081.22;12992748;22;96543;-79
2023/04/03 18:05:49;;;;;;;7.65;4.10;;;;;;;18.80;52.84;100070.53;12993882;22;96651;-80
2023/04/03 18:11:06;;;;;;;8.10;4.32;;;;;;;18.66;52.92;100060.06;12993869;22;96980;-80
2023/04/03 18:16:24;;;;;;;6.32;4.40;;;;;;;18.53;52.86;100052.16;12993926;22;96627;-80
2023/04/03 18:21:28;;;;;;;13.90;7.53;;;;;;;18.36;53.71;100047.19;12993241;22;96678;-80
2023/04/03 18:26:34;;;;;;;8.93;5.93;;;;;;;18.24;54.21;100036.59;12993153;22;96605;-79
2023/04/03 18:31:50;;;;;;;11.75;5.95;;;;;;;18.13;54.68;100045.38;12993861;22;96861;-80
2023/04/03 18:36:56;;;;;;;7.75;5.53;;;;;;;18.10;54.27;100050.94;12994695;22;96951;-80
2023/04/03 18:42:05;;;;;;;11.23;5.95;;;;;;;18.10;55.42;100042.97;12993729;22;97469;-80
2023/04/03 18:47:10;;;;;;;9.40;5.20;;;;;;;18.01;55.13;100027.66;12993254;22;96690;-79
2023/04/03 18:52:15;;;;;;;12.25;5.35;;;;;;;18.06;55.28;100026.34;12992029;22;96694;-80
2023/04/03 18:57:25;;;;;;;15.70;7.75;;;;;;;18.03;55.55;100028.38;12993274;22;96701;-80
2023/04/03 19:02:35;;;;;;;20.92;10.75;;;;;;;18.03;55.40;100029.25;12993092;22;96734;-79
2023/04/03 19:07:43;;;;;;;15.82;10.43;;;;;;;18.00;56.50;100042.75;12992682;22;96647;-79
2023/04/03 19:12:53;;;;;;;12.90;7.28;;;;;;;17.84;57.73;100036.88;12992683;22;96664;-79
2023/04/03 19:17:58;;;;;;;11.98;6.95;;;;;;;17.72;58.55;100050.22;12993335;22;97060;-79
2023/04/03 19:23:04;;;;;;;11.95;6.70;;;;;;;17.54;59.58;100049.72;12993001;22;96583;-79
2023/04/03 19:28:09;;;;;;;12.85;6.40;;;;;;;17.61;58.69;100048.31;12993588;22;96831;-79
2023/04/03 19:33:12;;;;;;;12.95;6.55;;;;;;;17.55;59.53;100046.13;12992411;22;96631;-79
2023/04/03 19:38:16;;;;;;;13.70;7.85;;;;;;;17.60;59.52;100038.66;12993191;22;96750;-79
2023/04/03 19:43:24;;;;;;;12.07;6.60;;;;;;;17.37;59.41;100038.53;12991779;22;96704;-79
2023/04/03 19:48:31;;;;;;;14.73;7.80;;;;;;;17.39;59.31;100039.28;12992744;22;96729;-79
2023/04/03 19:53:34;;;;;;;17.52;7.85;;;;;;;17.34;60.57;100055.56;12992315;22;96561;-80
2023/04/03 19:58:41;;;;;;;13.52;7.68;;;;;;;17.23;61.21;100063.44;12993057;22;97009;-80
2023/04/03 20:03:50;;;;;;;14.73;7.97;;;;;;;17.29;61.33;100071.00;12992549;22;96664;-79
2023/04/03 20:08:55;;;;;;;13.38;7.63;;;;;;;17.28;60.69;100066.63;12992572;22;96647;-79
2023/04/03 20:14:01;;;;;;;;;;;;;;;17.17;61.57;100063.88;12993121;22;96704;-80
2023/04/03 20:19:06;;;;;;;12.80;7.03;;;;;;;17.20;60.36;100074.31;12993892;22;96666;-80
2023/04/03 20:24:11;;;;;;;14.43;7.72;;;;;;;17.04;58.60;100079.84;12991808;22;96769;-80
2023/04/03 20:29:26;;;;;;;14.85;7.50;;;;;;;16.90;60.13;100103.84;12992447;22;96710;-80
2023/04/03 20:34:33;;;;;;;12.15;6.63;;;;;;;16.88;61.94;100116.38;12991110;22;96652;-80
2023/04/03 20:39:39;;;;;;;16.38;7.55;;;;;;;16.67;65.03;100127.63;12992377;22;97051;-80
2023/04/03 20:44:49;;;;;;;17.10;7.70;;;;;;;16.48;67.80;100129.78;12991707;22;96649;-80
2023/04/03 20:49:58;;;;;;;15.43;8.20;;;;;;;16.40;68.14;100126.75;12992030;22;96660;-80
2023/04/03 20:55:02;;;;;;;12.88;7.90;;;;;;;16.40;68.26;100148.00;12991738;22;96645;-80
2023/04/03 21:00:08;;;;;;;18.00;9.27;;;;;;;16.27;69.52;100141.75;12991275;22;96824;-79
2023/04/03 21:05:12;;;;;;;17.92;9.10;;;;;;;16.22;69.65;100157.97;12991783;22;96643;-80
2023/04/03 21:10:52;;;;;;;16.87;8.80;;;;;;;16.03;70.96;100165.41;12992499;22;96650;-80
2023/04/03 21:16:00;;;;;;;16.77;9.15;;;;;;;16.07;70.39;100166.91;12991538;22;96651;-80
2023/04/03 21:21:21;;;;;;;18.52;8.00;;;;;;;16.08;71.12;100165.13;12991342;22;96536;-80
2023/04/03 21:26:30;;;;;;;17.88;7.63;;;;;;;16.00;70.13;100164.72;12989353;22;99969;-80
2023/04/03 21:31:55;;;;;;;16.38;7.65;;;;;;;15.84;71.44;100167.50;12991125;22;96619;-79
2023/04/03 21:37:05;;;;;;;15.13;6.85;;;;;;;15.83;70.99;100168.47;12991200;22;96683;-80
2023/04/03 21:42:13;;;;;;;16.05;7.95;;;;;;;15.82;71.13;100167.59;12991551;22;96741;-80
2023/04/03 21:47:17;;;;;;;19.17;7.78;;;;;;;15.74;71.49;100183.16;12991015;22;96540;-80
2023/04/03 21:52:22;;;;;;;10.23;6.75;;;;;;;15.66;71.69;100182.78;12990150;22;96700;-79
2023/04/03 21:57:25;;;;;;;15.05;6.85;;;;;;;15.68;71.09;100188.81;12993777;22;97340;-79
2023/04/03 22:02:41;;;;;;;13.18;6.25;;;;;;;15.71;70.96;100191.31;12994924;22;96617;-79
2023/04/03 22:07:51;;;;;;;13.77;5.90;;;;;;;15.72;70.75;100178.88;12993986;22;96456;-79
2023/04/03 22:12:57;;;;;;;13.77;6.07;;;;;;;15.72;70.81;100187.69;12993728;22;97293;-79
2023/04/03 22:18:03;;;;;;;14.30;6.03;;;;;;;15.76;70.68;100191.00;12992629;22;96623;-80
2023/04/03 22:23:08;;;;;;;17.48;6.50;;;;;;;15.65;71.16;100191.66;12993096;22;98300;-79
2023/04/03 22:28:23;;;;;;;;;;;;;;;;;;;;;
2023/04/03 23:55:53;;;;;;;15.07;5.18;;;;;;;15.84;70.42;100171.00;12992224;22;99022;-80
